sensor_id;sensor_type;location;lat;lon;timestamp;P1;durP1;ratioP1;P2;durP2;ratioP2
15228;SDS011;7717;47.792;12.076;2022-09-13T00:01:27;5.53;;;2.93;;
15228;SDS011;7717;47.792;12.076;2022-09-13T00:03:52;3.70;;;3.13;;
15228;SDS011;7717;47.792;12.076;2022-09-13T00:06:18;4.13;;;3.37;;
15228;SDS011;7717;47.792;12.076;2022-09-13T00:08:43;5.67;;;3.30;;
15228;SDS011;7717;47.792;12.076;2022-09-13T00:11:23;5.93;;;3.30;;
15228;SDS011;7717;47.792;12.076;2022-09-13T00:13:48;4.17;;;3.17;;
15228;SDS011;7717;47.792;12.076;2022-09-13T00:16:14;3.60;;;3.27;;
15228;SDS011;7717;47.792;12.076;2022-09-13T00:18:40;3.50;;;2.90;;
15228;SDS011;7717;47.792;12.076;2022-09-13T00:21:06;4.40;;;2.97;;
15228;SDS011;7717;47.792;12.076;2022-09-13T00:23:31;4.63;;;3.03;;
15228;SDS011;7717;47.792;12.076;2022-09-13T00:26:07;3.50;;;3.20;;
15228;SDS011;7717;47.792;12.076;2022-09-13T00:28:33;6.47;;;3.30;;
15228;SDS011;7717;47.792;12.076;2022-09-13T00:30:59;3.27;;;2.97;;
15228;SDS011;7717;47.792;12.076;2022-09-13T00:33:31;3.83;;;2.70;;
15228;SDS011;7717;47.792;12.076;2022-09-13T00:35:56;3.87;;;3.13;;
15228;SDS011;7717;47.792;12.076;2022-09-13T00:38:22;4.07;;;3.07;;
15228;SDS011;7717;47.792;12.076;2022-09-13T00:40:48;3.13;;;2.83;;
15228;SDS011;7717;47.792;12.076;2022-09-13T00:43:17;3.87;;;2.80;;
15228;SDS011;7717;47.792;12.076;2022-09-13T00:45:43;3.13;;;2.83;;
15228;SDS011;7717;47.792;12.076;2022-09-13T00:48:10;4.33;;;2.97;;
15228;SDS011;7717;47.792;12.076;2022-09-13T00:50:40;3.93;;;2.70;;
15228;SDS011;7717;47.792;12.076;2022-09-13T00:58:05;4.33;;;3.07;;
15228;SDS011;7717;47.792;12.076;2022-09-13T01:00:32;3.07;;;2.87;;
15228;SDS011;7717;47.792;12.076;2022-09-13T01:02:59;4.87;;;4.47;;
15228;SDS011;7717;47.792;12.076;2022-09-13T01:05:27;4.60;;;2.83;;
15228;SDS011;7717;47.792;12.076;2022-09-13T01:07:54;3.27;;;2.87;;
15228;SDS011;7717;47.792;12.076;2022-09-13T01:10:20;3.67;;;3.27;;
15228;SDS011;7717;47.792;12.076;2022-09-13T01:15:20;3.70;;;2.70;;
15228;SDS011;7717;47.792;12.076;2022-09-13T01:17:45;3.03;;;2.83;;
15228;SDS011;7717;47.792;12.076;2022-09-13T01:20:10;3.07;;;2.77;;
15228;SDS011;7717;47.792;12.076;2022-09-13T01:30:11;3.53;;;3.23;;
15228;SDS011;7717;47.792;12.076;2022-09-13T01:35:14;3.40;;;3.10;;
15228;SDS011;7717;47.792;12.076;2022-09-13T01:37:49;5.10;;;3.30;;
15228;SDS011;7717;47.792;12.076;2022-09-13T01:42:49;3.63;;;3.33;;
15228;SDS011;7717;47.792;12.076;2022-09-13T01:45:23;3.53;;;3.23;;
15228;SDS011;7717;47.792;12.076;2022-09-13T01:50:36;3.23;;;2.93;;
15228;SDS011;7717;47.792;12.076;2022-09-13T01:53:08;4.03;;;3.73;;
15228;SDS011;7717;47.792;12.076;2022-09-13T01:55:38;3.07;;;2.77;;
15228;SDS011;7717;47.792;12.076;2022-09-13T02:00:33;2.77;;;2.53;;
15228;SDS011;7717;47.792;12.076;2022-09-13T02:03:08;3.57;;;3.00;;
15228;SDS011;7717;47.792;12.076;2022-09-13T02:05:43;6.37;;;2.73;;
15228;SDS011;7717;47.792;12.076;2022-09-13T02:08:21;4.10;;;2.70;;
15228;SDS011;7717;47.792;12.076;2022-09-13T02:10:59;3.97;;;2.90;;
15228;SDS011;7717;47.792;12.076;2022-09-13T02:13:29;3.20;;;2.90;;
15228;SDS011;7717;47.792;12.076;2022-09-13T02:16:04;2.87;;;2.67;;
15228;SDS011;7717;47.792;12.076;2022-09-13T02:18:33;3.20;;;3.00;;
15228;SDS011;7717;47.792;12.076;2022-09-13T02:21:00;3.70;;;2.80;;
15228;SDS011;7717;47.792;12.076;2022-09-13T02:23:31;4.97;;;2.87;;
15228;SDS011;7717;47.792;12.076;2022-09-13T02:25:58;3.27;;;2.97;;
15228;SDS011;7717;47.792;12.076;2022-09-13T02:28:30;3.40;;;3.10;;
15228;SDS011;7717;47.792;12.076;2022-09-13T02:30:56;3.70;;;3.40;;
15228;SDS011;7717;47.792;12.076;2022-09-13T02:33:24;3.20;;;2.97;;
15228;SDS011;7717;47.792;12.076;2022-09-13T02:35:51;5.27;;;2.90;;
15228;SDS011;7717;47.792;12.076;2022-09-13T02:38:31;5.17;;;2.87;;
15228;SDS011;7717;47.792;12.076;2022-09-13T02:41:04;6.53;;;2.63;;
15228;SDS011;7717;47.792;12.076;2022-09-13T02:43:38;3.27;;;2.90;;
15228;SDS011;7717;47.792;12.076;2022-09-13T02:48:48;2.37;;;2.17;;
15228;SDS011;7717;47.792;12.076;2022-09-13T02:51:29;3.27;;;2.97;;
15228;SDS011;7717;47.792;12.076;2022-09-13T02:54:18;2.43;;;2.23;;
15228;SDS011;7717;47.792;12.076;2022-09-13T02:57:30;2.53;;;2.30;;
15228;SDS011;7717;47.792;12.076;2022-09-13T02:59:39;4.83;;;2.87;;
15228;SDS011;7717;47.792;12.076;2022-09-13T03:02:05;2.93;;;2.47;;
15228;SDS011;7717;47.792;12.076;2022-09-13T03:04:32;2.63;;;2.43;;
15228;SDS011;7717;47.792;12.076;2022-09-13T03:06:57;2.77;;;2.40;;
15228;SDS011;7717;47.792;12.076;2022-09-13T03:09:22;3.00;;;2.40;;
15228;SDS011;7717;47.792;12.076;2022-09-13T03:14:27;3.17;;;2.87;;
15228;SDS011;7717;47.792;12.076;2022-09-13T03:17:04;2.77;;;2.57;;
15228;SDS011;7717;47.792;12.076;2022-09-13T03:24:32;3.37;;;2.53;;
15228;SDS011;7717;47.792;12.076;2022-09-13T03:36:51;4.00;;;3.17;;
15228;SDS011;7717;47.792;12.076;2022-09-13T03:42:06;4.27;;;2.80;;
15228;SDS011;7717;47.792;12.076;2022-09-13T03:44:35;3.00;;;2.80;;
15228;SDS011;7717;47.792;12.076;2022-09-13T03:47:02;3.67;;;2.90;;
15228;SDS011;7717;47.792;12.076;2022-09-13T03:49:27;3.00;;;2.70;;
15228;SDS011;7717;47.792;12.076;2022-09-13T03:51:53;3.23;;;2.80;;
15228;SDS011;7717;47.792;12.076;2022-09-13T03:54:23;4.73;;;2.50;;
15228;SDS011;7717;47.792;12.076;2022-09-13T03:59:30;2.87;;;2.53;;
15228;SDS011;7717;47.792;12.076;2022-09-13T04:01:56;2.90;;;2.70;;
15228;SDS011;7717;47.792;12.076;2022-09-13T04:04:26;3.60;;;2.83;;
15228;SDS011;7717;47.792;12.076;2022-09-13T04:06:51;5.80;;;2.70;;
15228;SDS011;7717;47.792;12.076;2022-09-13T04:09:17;3.73;;;2.60;;
15228;SDS011;7717;47.792;12.076;2022-09-13T04:11:43;3.07;;;2.80;;
15228;SDS011;7717;47.792;12.076;2022-09-13T04:14:08;3.53;;;3.23;;
15228;SDS011;7717;47.792;12.076;2022-09-13T04:16:33;2.60;;;2.33;;
15228;SDS011;7717;47.792;12.076;2022-09-13T04:18:59;3.67;;;3.00;;
15228;SDS011;7717;47.792;12.076;2022-09-13T04:21:24;3.73;;;2.80;;
15228;SDS011;7717;47.792;12.076;2022-09-13T04:23:50;2.63;;;2.43;;
15228;SDS011;7717;47.792;12.076;2022-09-13T04:26:17;5.43;;;2.53;;
15228;SDS011;7717;47.792;12.076;2022-09-13T04:28:44;5.57;;;2.90;;
15228;SDS011;7717;47.792;12.076;2022-09-13T04:31:09;2.57;;;2.37;;
15228;SDS011;7717;47.792;12.076;2022-09-13T04:33:34;4.80;;;2.70;;
15228;SDS011;7717;47.792;12.076;2022-09-13T04:36:01;2.63;;;2.43;;
15228;SDS011;7717;47.792;12.076;2022-09-13T04:38:26;3.53;;;2.87;;
15228;SDS011;7717;47.792;12.076;2022-09-13T04:40:52;2.80;;;2.60;;
15228;SDS011;7717;47.792;12.076;2022-09-13T04:43:18;3.10;;;2.57;;
15228;SDS011;7717;47.792;12.076;2022-09-13T04:45:43;3.57;;;2.53;;
15228;SDS011;7717;47.792;12.076;2022-09-13T04:48:08;4.47;;;2.87;;
15228;SDS011;7717;47.792;12.076;2022-09-13T04:50:33;3.07;;;2.77;;
15228;SDS011;7717;47.792;12.076;2022-09-13T04:52:59;2.70;;;2.50;;
15228;SDS011;7717;47.792;12.076;2022-09-13T04:55:24;4.07;;;2.80;;
15228;SDS011;7717;47.792;12.076;2022-09-13T04:57:53;3.00;;;2.60;;
15228;SDS011;7717;47.792;12.076;2022-09-13T05:00:18;3.07;;;2.60;;
15228;SDS011;7717;47.792;12.076;2022-09-13T05:02:44;5.70;;;2.83;;
15228;SDS011;7717;47.792;12.076;2022-09-13T05:05:09;2.87;;;2.67;;
15228;SDS011;7717;47.792;12.076;2022-09-13T05:07:34;2.90;;;2.60;;
15228;SDS011;7717;47.792;12.076;2022-09-13T05:09:59;5.53;;;3.17;;
15228;SDS011;7717;47.792;12.076;2022-09-13T05:12:25;3.93;;;3.37;;
15228;SDS011;7717;47.792;12.076;2022-09-13T05:14:50;5.40;;;4.30;;
15228;SDS011;7717;47.792;12.076;2022-09-13T05:17:15;3.63;;;3.33;;
15228;SDS011;7717;47.792;12.076;2022-09-13T05:19:40;5.40;;;4.90;;
15228;SDS011;7717;47.792;12.076;2022-09-13T05:22:06;5.20;;;4.70;;
15228;SDS011;7717;47.792;12.076;2022-09-13T05:24:31;4.80;;;3.70;;
15228;SDS011;7717;47.792;12.076;2022-09-13T05:26:57;4.37;;;3.87;;
15228;SDS011;7717;47.792;12.076;2022-09-13T05:29:22;3.63;;;3.33;;
15228;SDS011;7717;47.792;12.076;2022-09-13T05:31:48;3.20;;;3.00;;
15228;SDS011;7717;47.792;12.076;2022-09-13T05:34:15;3.30;;;3.10;;
15228;SDS011;7717;47.792;12.076;2022-09-13T05:36:42;4.00;;;2.90;;
15228;SDS011;7717;47.792;12.076;2022-09-13T05:39:11;3.30;;;2.70;;
15228;SDS011;7717;47.792;12.076;2022-09-13T05:41:36;3.97;;;2.60;;
15228;SDS011;7717;47.792;12.076;2022-09-13T05:44:05;3.63;;;3.33;;
15228;SDS011;7717;47.792;12.076;2022-09-13T05:46:34;3.03;;;2.73;;
15228;SDS011;7717;47.792;12.076;2022-09-13T05:48:59;4.90;;;2.37;;
15228;SDS011;7717;47.792;12.076;2022-09-13T05:51:25;3.07;;;2.80;;
15228;SDS011;7717;47.792;12.076;2022-09-13T05:53:51;6.60;;;2.50;;
15228;SDS011;7717;47.792;12.076;2022-09-13T05:56:18;2.40;;;2.20;;
15228;SDS011;7717;47.792;12.076;2022-09-13T05:58:45;1.93;;;1.80;;
15228;SDS011;7717;47.792;12.076;2022-09-13T06:01:12;2.63;;;2.20;;
15228;SDS011;7717;47.792;12.076;2022-09-13T06:03:37;1.67;;;1.57;;
15228;SDS011;7717;47.792;12.076;2022-09-13T06:06:03;2.23;;;2.03;;
15228;SDS011;7717;47.792;12.076;2022-09-13T06:08:29;2.60;;;2.40;;
15228;SDS011;7717;47.792;12.076;2022-09-13T06:10:56;2.07;;;1.97;;
15228;SDS011;7717;47.792;12.076;2022-09-13T06:13:22;2.17;;;1.80;;
15228;SDS011;7717;47.792;12.076;2022-09-13T06:15:47;2.07;;;1.97;;
15228;SDS011;7717;47.792;12.076;2022-09-13T06:18:13;2.93;;;1.80;;
15228;SDS011;7717;47.792;12.076;2022-09-13T06:20:39;1.77;;;1.67;;
15228;SDS011;7717;47.792;12.076;2022-09-13T06:23:05;2.23;;;1.90;;
15228;SDS011;7717;47.792;12.076;2022-09-13T06:25:30;2.03;;;1.63;;
15228;SDS011;7717;47.792;12.076;2022-09-13T06:27:55;1.57;;;1.40;;
15228;SDS011;7717;47.792;12.076;2022-09-13T06:30:20;3.47;;;1.30;;
15228;SDS011;7717;47.792;12.076;2022-09-13T06:32:46;1.13;;;1.13;;
15228;SDS011;7717;47.792;12.076;2022-09-13T06:35:11;1.87;;;1.30;;
15228;SDS011;7717;47.792;12.076;2022-09-13T06:37:36;1.37;;;1.27;;
15228;SDS011;7717;47.792;12.076;2022-09-13T06:40:02;1.77;;;1.40;;
15228;SDS011;7717;47.792;12.076;2022-09-13T06:42:29;1.47;;;1.37;;
15228;SDS011;7717;47.792;12.076;2022-09-13T06:44:54;3.60;;;1.33;;
15228;SDS011;7717;47.792;12.076;2022-09-13T06:47:19;2.50;;;1.30;;
15228;SDS011;7717;47.792;12.076;2022-09-13T06:49:45;1.00;;;1.00;;
15228;SDS011;7717;47.792;12.076;2022-09-13T06:52:10;1.10;;;1.10;;
15228;SDS011;7717;47.792;12.076;2022-09-13T06:54:35;2.00;;;1.10;;
15228;SDS011;7717;47.792;12.076;2022-09-13T06:57:00;1.20;;;1.10;;
15228;SDS011;7717;47.792;12.076;2022-09-13T06:59:27;1.70;;;0.93;;
15228;SDS011;7717;47.792;12.076;2022-09-13T07:01:52;3.60;;;1.27;;
15228;SDS011;7717;47.792;12.076;2022-09-13T07:04:18;2.50;;;1.37;;
15228;SDS011;7717;47.792;12.076;2022-09-13T07:06:47;1.13;;;1.00;;
15228;SDS011;7717;47.792;12.076;2022-09-13T07:09:13;1.43;;;0.93;;
15228;SDS011;7717;47.792;12.076;2022-09-13T07:11:40;1.23;;;0.93;;
15228;SDS011;7717;47.792;12.076;2022-09-13T07:14:05;3.47;;;1.30;;
15228;SDS011;7717;47.792;12.076;2022-09-13T07:16:32;1.50;;;0.93;;
15228;SDS011;7717;47.792;12.076;2022-09-13T07:19:01;1.83;;;1.13;;
15228;SDS011;7717;47.792;12.076;2022-09-13T07:21:28;2.93;;;1.27;;
15228;SDS011;7717;47.792;12.076;2022-09-13T07:23:54;1.17;;;1.00;;
15228;SDS011;7717;47.792;12.076;2022-09-13T07:26:20;2.30;;;1.10;;
15228;SDS011;7717;47.792;12.076;2022-09-13T07:28:47;1.40;;;1.10;;
15228;SDS011;7717;47.792;12.076;2022-09-13T07:31:13;0.97;;;0.90;;
15228;SDS011;7717;47.792;12.076;2022-09-13T07:33:40;1.17;;;1.07;;
15228;SDS011;7717;47.792;12.076;2022-09-13T07:36:05;0.50;;;0.50;;
15228;SDS011;7717;47.792;12.076;2022-09-13T07:38:32;1.67;;;1.13;;
15228;SDS011;7717;47.792;12.076;2022-09-13T07:40:57;0.80;;;0.80;;
15228;SDS011;7717;47.792;12.076;2022-09-13T07:43:26;0.90;;;0.90;;
15228;SDS011;7717;47.792;12.076;2022-09-13T07:45:55;1.10;;;1.00;;
15228;SDS011;7717;47.792;12.076;2022-09-13T07:48:22;0.73;;;0.73;;
15228;SDS011;7717;47.792;12.076;2022-09-13T07:53:23;1.47;;;1.00;;
15228;SDS011;7717;47.792;12.076;2022-09-13T07:55:48;1.50;;;1.00;;
15228;SDS011;7717;47.792;12.076;2022-09-13T07:58:13;1.00;;;0.93;;
15228;SDS011;7717;47.792;12.076;2022-09-13T08:00:39;1.10;;;1.00;;
15228;SDS011;7717;47.792;12.076;2022-09-13T08:03:04;0.90;;;0.90;;
15228;SDS011;7717;47.792;12.076;2022-09-13T08:05:29;1.70;;;1.03;;
15228;SDS011;7717;47.792;12.076;2022-09-13T08:07:56;0.90;;;0.90;;
15228;SDS011;7717;47.792;12.076;2022-09-13T08:10:22;1.53;;;1.00;;
15228;SDS011;7717;47.792;12.076;2022-09-13T08:12:47;1.03;;;1.00;;
15228;SDS011;7717;47.792;12.076;2022-09-13T08:15:13;0.80;;;0.80;;
15228;SDS011;7717;47.792;12.076;2022-09-13T08:17:38;1.97;;;0.93;;
15228;SDS011;7717;47.792;12.076;2022-09-13T08:20:03;1.50;;;0.90;;
15228;SDS011;7717;47.792;12.076;2022-09-13T08:22:29;1.30;;;0.93;;
15228;SDS011;7717;47.792;12.076;2022-09-13T08:24:54;1.47;;;1.00;;
15228;SDS011;7717;47.792;12.076;2022-09-13T08:27:19;1.53;;;0.83;;
15228;SDS011;7717;47.792;12.076;2022-09-13T08:29:44;0.80;;;0.80;;
15228;SDS011;7717;47.792;12.076;2022-09-13T08:32:10;1.00;;;0.90;;
15228;SDS011;7717;47.792;12.076;2022-09-13T08:34:35;1.50;;;0.70;;
15228;SDS011;7717;47.792;12.076;2022-09-13T08:37:00;0.80;;;0.80;;
15228;SDS011;7717;47.792;12.076;2022-09-13T08:39:25;1.03;;;0.80;;
15228;SDS011;7717;47.792;12.076;2022-09-13T08:41:58;2.93;;;0.97;;
15228;SDS011;7717;47.792;12.076;2022-09-13T08:44:47;1.10;;;1.10;;
15228;SDS011;7717;47.792;12.076;2022-09-13T08:50:05;1.00;;;0.93;;
15228;SDS011;7717;47.792;12.076;2022-09-13T08:55:22;0.73;;;0.70;;
15228;SDS011;7717;47.792;12.076;2022-09-13T08:57:52;0.70;;;0.70;;
15228;SDS011;7717;47.792;12.076;2022-09-13T09:00:20;3.37;;;0.83;;
15228;SDS011;7717;47.792;12.076;2022-09-13T09:05:49;2.00;;;1.33;;
15228;SDS011;7717;47.792;12.076;2022-09-13T09:08:21;0.87;;;0.80;;
15228;SDS011;7717;47.792;12.076;2022-09-13T09:10:48;1.40;;;0.80;;
15228;SDS011;7717;47.792;12.076;2022-09-13T09:15:54;2.25;;;0.75;;
15228;SDS011;7717;47.792;12.076;2022-09-13T09:18:24;0.80;;;0.80;;
15228;SDS011;7717;47.792;12.076;2022-09-13T09:20:52;2.30;;;1.02;;
15228;SDS011;7717;47.792;12.076;2022-09-13T09:23:22;0.98;;;0.90;;
15228;SDS011;7717;47.792;12.076;2022-09-13T09:26:23;0.70;;;0.70;;
15228;SDS011;7717;47.792;12.076;2022-09-13T09:28:41;1.35;;;0.70;;
15228;SDS011;7717;47.792;12.076;2022-09-13T09:31:11;1.25;;;0.70;;
15228;SDS011;7717;47.792;12.076;2022-09-13T09:36:27;0.55;;;0.55;;
15228;SDS011;7717;47.792;12.076;2022-09-13T09:38:54;0.70;;;0.70;;
15228;SDS011;7717;47.792;12.076;2022-09-13T09:41:38;1.45;;;0.85;;
15228;SDS011;7717;47.792;12.076;2022-09-13T09:46:30;1.08;;;0.90;;
15228;SDS011;7717;47.792;12.076;2022-09-13T09:48:59;0.82;;;0.82;;
15228;SDS011;7717;47.792;12.076;2022-09-13T09:51:28;1.08;;;0.70;;
15228;SDS011;7717;47.792;12.076;2022-09-13T09:53:57;1.05;;;0.90;;
15228;SDS011;7717;47.792;12.076;2022-09-13T09:56:28;1.77;;;0.80;;
15228;SDS011;7717;47.792;12.076;2022-09-13T09:58:54;2.00;;;0.88;;
15228;SDS011;7717;47.792;12.076;2022-09-13T10:01:23;0.98;;;0.85;;
15228;SDS011;7717;47.792;12.076;2022-09-13T10:03:50;2.35;;;0.70;;
15228;SDS011;7717;47.792;12.076;2022-09-13T10:06:21;3.08;;;0.60;;
15228;SDS011;7717;47.792;12.076;2022-09-13T10:08:54;1.05;;;0.73;;
15228;SDS011;7717;47.792;12.076;2022-09-13T10:11:20;1.15;;;0.68;;
15228;SDS011;7717;47.792;12.076;2022-09-13T10:13:59;0.60;;;0.52;;
15228;SDS011;7717;47.792;12.076;2022-09-13T10:16:26;0.60;;;0.60;;
15228;SDS011;7717;47.792;12.076;2022-09-13T10:18:52;1.38;;;0.75;;
15228;SDS011;7717;47.792;12.076;2022-09-13T10:23:42;1.70;;;0.70;;
15228;SDS011;7717;47.792;12.076;2022-09-13T10:26:10;2.75;;;0.90;;
15228;SDS011;7717;47.792;12.076;2022-09-13T10:29:18;0.65;;;0.60;;
15228;SDS011;7717;47.792;12.076;2022-09-13T10:31:27;0.60;;;0.60;;
15228;SDS011;7717;47.792;12.076;2022-09-13T10:36:28;1.55;;;1.00;;
15228;SDS011;7717;47.792;12.076;2022-09-13T10:39:00;1.20;;;0.60;;
15228;SDS011;7717;47.792;12.076;2022-09-13T10:41:26;1.90;;;0.68;;
15228;SDS011;7717;47.792;12.076;2022-09-13T10:44:03;1.60;;;0.73;;
15228;SDS011;7717;47.792;12.076;2022-09-13T10:46:32;1.02;;;0.68;;
15228;SDS011;7717;47.792;12.076;2022-09-13T10:48:57;0.60;;;0.60;;
15228;SDS011;7717;47.792;12.076;2022-09-13T10:56:31;1.80;;;0.70;;
15228;SDS011;7717;47.792;12.076;2022-09-13T11:07:09;0.73;;;0.70;;
15228;SDS011;7717;47.792;12.076;2022-09-13T11:09:47;0.73;;;0.55;;
15228;SDS011;7717;47.792;12.076;2022-09-13T11:12:18;1.20;;;0.68;;
15228;SDS011;7717;47.792;12.076;2022-09-13T11:17:24;2.17;;;1.20;;
15228;SDS011;7717;47.792;12.076;2022-09-13T11:22:36;0.40;;;0.40;;
15228;SDS011;7717;47.792;12.076;2022-09-13T11:37:57;0.57;;;0.50;;
15228;SDS011;7717;47.792;12.076;2022-09-13T11:40:41;1.23;;;0.80;;
15228;SDS011;7717;47.792;12.076;2022-09-13T11:43:16;0.70;;;0.70;;
15228;SDS011;7717;47.792;12.076;2022-09-13T11:45:47;0.68;;;0.68;;
15228;SDS011;7717;47.792;12.076;2022-09-13T11:55:56;0.60;;;0.60;;
15228;SDS011;7717;47.792;12.076;2022-09-13T11:58:25;0.70;;;0.70;;
15228;SDS011;7717;47.792;12.076;2022-09-13T12:00:54;1.52;;;0.60;;
15228;SDS011;7717;47.792;12.076;2022-09-13T12:03:24;1.45;;;0.63;;
15228;SDS011;7717;47.792;12.076;2022-09-13T12:06:05;0.88;;;0.52;;
15228;SDS011;7717;47.792;12.076;2022-09-13T12:08:34;0.70;;;0.70;;
15228;SDS011;7717;47.792;12.076;2022-09-13T12:11:10;0.47;;;0.47;;
15228;SDS011;7717;47.792;12.076;2022-09-13T12:16:09;1.77;;;0.70;;
15228;SDS011;7717;47.792;12.076;2022-09-13T12:18:40;0.60;;;0.60;;
15228;SDS011;7717;47.792;12.076;2022-09-13T12:21:10;0.75;;;0.50;;
15228;SDS011;7717;47.792;12.076;2022-09-13T12:23:38;2.28;;;1.13;;
15228;SDS011;7717;47.792;12.076;2022-09-13T12:26:19;0.52;;;0.52;;
15228;SDS011;7717;47.792;12.076;2022-09-13T12:28:47;1.08;;;0.70;;
15228;SDS011;7717;47.792;12.076;2022-09-13T12:31:17;0.85;;;0.60;;
15228;SDS011;7717;47.792;12.076;2022-09-13T12:33:44;0.70;;;0.50;;
15228;SDS011;7717;47.792;12.076;2022-09-13T12:51:13;0.50;;;0.50;;
15228;SDS011;7717;47.792;12.076;2022-09-13T12:53:55;0.63;;;0.63;;
15228;SDS011;7717;47.792;12.076;2022-09-13T13:01:25;2.08;;;0.80;;
15228;SDS011;7717;47.792;12.076;2022-09-13T13:03:52;1.27;;;1.13;;
15228;SDS011;7717;47.792;12.076;2022-09-13T13:06:26;0.77;;;0.60;;
15228;SDS011;7717;47.792;12.076;2022-09-13T13:08:53;0.70;;;0.60;;
15228;SDS011;7717;47.792;12.076;2022-09-13T13:11:21;0.52;;;0.52;;
15228;SDS011;7717;47.792;12.076;2022-09-13T13:13:58;0.88;;;0.88;;
15228;SDS011;7717;47.792;12.076;2022-09-13T13:18:51;0.60;;;0.60;;
15228;SDS011;7717;47.792;12.076;2022-09-13T13:26:43;1.50;;;0.60;;
15228;SDS011;7717;47.792;12.076;2022-09-13T13:32:06;1.20;;;0.73;;
15228;SDS011;7717;47.792;12.076;2022-09-13T13:37:00;1.52;;;0.77;;
15228;SDS011;7717;47.792;12.076;2022-09-13T13:41:58;1.17;;;0.87;;
15228;SDS011;7717;47.792;12.076;2022-09-13T13:46:52;2.60;;;0.83;;
15228;SDS011;7717;47.792;12.076;2022-09-13T13:54:31;1.48;;;0.85;;
15228;SDS011;7717;47.792;12.076;2022-09-13T13:57:24;1.80;;;0.90;;
15228;SDS011;7717;47.792;12.076;2022-09-13T13:59:52;0.82;;;0.80;;
15228;SDS011;7717;47.792;12.076;2022-09-13T14:02:20;0.80;;;0.80;;
15228;SDS011;7717;47.792;12.076;2022-09-13T14:07:23;1.30;;;0.60;;
15228;SDS011;7717;47.792;12.076;2022-09-13T14:20:02;1.13;;;0.68;;
15228;SDS011;7717;47.792;12.076;2022-09-13T14:22:28;1.02;;;0.70;;
15228;SDS011;7717;47.792;12.076;2022-09-13T14:24:54;0.63;;;0.60;;
15228;SDS011;7717;47.792;12.076;2022-09-13T14:27:21;1.55;;;0.95;;
15228;SDS011;7717;47.792;12.076;2022-09-13T14:29:51;0.85;;;0.73;;
15228;SDS011;7717;47.792;12.076;2022-09-13T14:32:18;1.77;;;0.93;;
15228;SDS011;7717;47.792;12.076;2022-09-13T14:34:58;3.20;;;1.02;;
15228;SDS011;7717;47.792;12.076;2022-09-13T14:37:25;1.83;;;0.85;;
15228;SDS011;7717;47.792;12.076;2022-09-13T14:39:54;1.83;;;1.00;;
15228;SDS011;7717;47.792;12.076;2022-09-13T14:42:20;0.80;;;0.80;;
15228;SDS011;7717;47.792;12.076;2022-09-13T14:44:46;0.88;;;0.80;;
15228;SDS011;7717;47.792;12.076;2022-09-13T14:47:20;2.42;;;1.13;;
15228;SDS011;7717;47.792;12.076;2022-09-13T14:49:47;2.17;;;1.58;;
15228;SDS011;7717;47.792;12.076;2022-09-13T14:52:22;0.80;;;0.80;;
15228;SDS011;7717;47.792;12.076;2022-09-13T14:54:49;1.45;;;0.82;;
15228;SDS011;7717;47.792;12.076;2022-09-13T14:57:30;1.27;;;0.90;;
15228;SDS011;7717;47.792;12.076;2022-09-13T15:00:21;1.63;;;1.05;;
15228;SDS011;7717;47.792;12.076;2022-09-13T15:02:55;1.05;;;0.95;;
15228;SDS011;7717;47.792;12.076;2022-09-13T15:05:23;1.83;;;0.85;;
15228;SDS011;7717;47.792;12.076;2022-09-13T15:07:49;1.95;;;1.10;;
15228;SDS011;7717;47.792;12.076;2022-09-13T15:20:18;1.52;;;0.98;;
15228;SDS011;7717;47.792;12.076;2022-09-13T15:22:44;1.58;;;0.80;;
15228;SDS011;7717;47.792;12.076;2022-09-13T15:25:20;1.17;;;0.85;;
15228;SDS011;7717;47.792;12.076;2022-09-13T15:27:46;1.13;;;0.95;;
15228;SDS011;7717;47.792;12.076;2022-09-13T15:30:45;1.60;;;1.38;;
15228;SDS011;7717;47.792;12.076;2022-09-13T15:35:30;2.67;;;1.05;;
15228;SDS011;7717;47.792;12.076;2022-09-13T15:37:59;2.67;;;1.17;;
15228;SDS011;7717;47.792;12.076;2022-09-13T15:40:25;1.65;;;1.55;;
15228;SDS011;7717;47.792;12.076;2022-09-13T15:42:52;2.88;;;1.20;;
15228;SDS011;7717;47.792;12.076;2022-09-13T15:45:18;2.58;;;1.25;;
15228;SDS011;7717;47.792;12.076;2022-09-13T15:47:47;1.95;;;1.20;;
15228;SDS011;7717;47.792;12.076;2022-09-13T15:50:17;1.77;;;0.90;;
15228;SDS011;7717;47.792;12.076;2022-09-13T15:52:43;3.08;;;1.10;;
15228;SDS011;7717;47.792;12.076;2022-09-13T15:55:09;1.02;;;0.93;;
15228;SDS011;7717;47.792;12.076;2022-09-13T15:57:35;2.58;;;1.10;;
15228;SDS011;7717;47.792;12.076;2022-09-13T16:00:00;1.45;;;1.17;;
15228;SDS011;7717;47.792;12.076;2022-09-13T16:02:26;2.42;;;1.02;;
15228;SDS011;7717;47.792;12.076;2022-09-13T16:04:52;2.28;;;1.00;;
15228;SDS011;7717;47.792;12.076;2022-09-13T16:07:18;3.42;;;1.17;;
15228;SDS011;7717;47.792;12.076;2022-09-13T16:09:44;1.67;;;1.08;;
15228;SDS011;7717;47.792;12.076;2022-09-13T16:12:09;1.20;;;1.00;;
15228;SDS011;7717;47.792;12.076;2022-09-13T16:14:35;1.08;;;0.98;;
15228;SDS011;7717;47.792;12.076;2022-09-13T16:17:03;2.45;;;1.00;;
15228;SDS011;7717;47.792;12.076;2022-09-13T16:19:29;1.65;;;1.00;;
15228;SDS011;7717;47.792;12.076;2022-09-13T16:21:54;1.90;;;1.33;;
15228;SDS011;7717;47.792;12.076;2022-09-13T16:24:20;1.60;;;1.25;;
15228;SDS011;7717;47.792;12.076;2022-09-13T16:26:45;3.67;;;1.30;;
15228;SDS011;7717;47.792;12.076;2022-09-13T16:29:10;1.92;;;1.33;;
15228;SDS011;7717;47.792;12.076;2022-09-13T16:31:36;1.10;;;1.00;;
15228;SDS011;7717;47.792;12.076;2022-09-13T16:34:01;1.83;;;1.40;;
15228;SDS011;7717;47.792;12.076;2022-09-13T16:36:27;2.13;;;1.25;;
15228;SDS011;7717;47.792;12.076;2022-09-13T16:38:53;1.40;;;1.30;;
15228;SDS011;7717;47.792;12.076;2022-09-13T16:41:19;1.30;;;1.20;;
15228;SDS011;7717;47.792;12.076;2022-09-13T16:43:44;1.40;;;1.30;;
15228;SDS011;7717;47.792;12.076;2022-09-13T16:46:09;1.35;;;1.17;;
15228;SDS011;7717;47.792;12.076;2022-09-13T16:48:35;3.33;;;1.48;;
15228;SDS011;7717;47.792;12.076;2022-09-13T16:51:01;1.77;;;1.20;;
15228;SDS011;7717;47.792;12.076;2022-09-13T16:53:29;1.40;;;1.30;;
15228;SDS011;7717;47.792;12.076;2022-09-13T16:56:02;2.20;;;1.33;;
15228;SDS011;7717;47.792;12.076;2022-09-13T16:58:27;3.90;;;1.40;;
15228;SDS011;7717;47.792;12.076;2022-09-13T17:00:53;6.63;;;1.53;;
15228;SDS011;7717;47.792;12.076;2022-09-13T17:03:18;2.97;;;1.57;;
15228;SDS011;7717;47.792;12.076;2022-09-13T17:05:43;2.90;;;1.70;;
15228;SDS011;7717;47.792;12.076;2022-09-13T17:08:09;2.57;;;1.40;;
15228;SDS011;7717;47.792;12.076;2022-09-13T17:10:36;1.30;;;1.20;;
15228;SDS011;7717;47.792;12.076;2022-09-13T17:13:01;2.77;;;1.27;;
15228;SDS011;7717;47.792;12.076;2022-09-13T17:15:26;2.33;;;1.30;;
15228;SDS011;7717;47.792;12.076;2022-09-13T17:17:52;3.10;;;1.43;;
15228;SDS011;7717;47.792;12.076;2022-09-13T17:20:17;2.60;;;1.50;;
15228;SDS011;7717;47.792;12.076;2022-09-13T17:22:42;1.80;;;1.70;;
15228;SDS011;7717;47.792;12.076;2022-09-13T17:25:08;2.20;;;1.60;;
15228;SDS011;7717;47.792;12.076;2022-09-13T17:27:34;2.20;;;2.00;;
15228;SDS011;7717;47.792;12.076;2022-09-13T17:30:00;3.97;;;1.93;;
15228;SDS011;7717;47.792;12.076;2022-09-13T17:32:26;3.00;;;1.60;;
15228;SDS011;7717;47.792;12.076;2022-09-13T17:34:51;4.07;;;1.67;;
15228;SDS011;7717;47.792;12.076;2022-09-13T17:37:16;3.07;;;1.87;;
15228;SDS011;7717;47.792;12.076;2022-09-13T17:39:42;2.07;;;1.87;;
15228;SDS011;7717;47.792;12.076;2022-09-13T17:42:07;3.23;;;1.90;;
15228;SDS011;7717;47.792;12.076;2022-09-13T17:44:32;2.93;;;1.80;;
15228;SDS011;7717;47.792;12.076;2022-09-13T17:46:58;2.40;;;1.60;;
15228;SDS011;7717;47.792;12.076;2022-09-13T17:49:23;2.13;;;1.93;;
15228;SDS011;7717;47.792;12.076;2022-09-13T17:51:48;2.07;;;1.50;;
15228;SDS011;7717;47.792;12.076;2022-09-13T17:54:14;2.20;;;1.83;;
15228;SDS011;7717;47.792;12.076;2022-09-13T17:56:42;4.10;;;2.07;;
15228;SDS011;7717;47.792;12.076;2022-09-13T17:59:09;5.07;;;2.10;;